createdAt,value
2022-09-05T00:00:03.190Z,19.43
2022-09-05T00:01:03.187Z,19.36
2022-09-05T00:02:03.221Z,19.33
2022-09-05T00:03:03.365Z,19.39
2022-09-05T00:04:08.366Z,19.37
2022-09-05T00:05:03.212Z,19.29
2022-09-05T00:06:03.610Z,19.33
2022-09-05T00:07:03.207Z,19.31
2022-09-05T00:08:03.200Z,19.31
2022-09-05T00:09:03.243Z,19.28
2022-09-05T00:10:03.204Z,19.31
2022-09-05T00:11:42.520Z,19.31
2022-09-05T00:12:03.232Z,19.31
2022-09-05T00:13:07.874Z,19.29
2022-09-05T00:14:03.238Z,19.28
2022-09-05T00:15:16.998Z,19.21
2022-09-05T00:16:03.301Z,19.31
2022-09-05T00:17:03.231Z,19.32
2022-09-05T00:21:22.764Z,19.26
2022-09-05T00:24:18.944Z,19.28
2022-09-05T00:24:20.153Z,19.25
2022-09-05T00:24:20.596Z,19.28
2022-09-05T00:24:28.312Z,19.29
2022-09-05T00:24:30.243Z,19.21
2022-09-05T00:24:42.059Z,19.29
2022-09-05T00:26:03.289Z,19.19
2022-09-05T00:27:03.256Z,19.19
2022-09-05T00:28:14.580Z,19.14
2022-09-05T00:29:03.277Z,19.11
2022-09-05T00:31:07.223Z,19.11
2022-09-05T00:31:08.561Z,19.10
2022-09-05T00:32:03.371Z,19.06
2022-09-05T00:33:03.309Z,19.02
2022-09-05T00:34:03.283Z,19.00
2022-09-05T00:35:03.299Z,18.92
2022-09-05T00:36:03.288Z,18.90
2022-09-05T00:37:03.300Z,18.92
2022-09-05T00:38:03.313Z,18.91
2022-09-05T00:39:03.293Z,18.94
2022-09-05T00:40:17.731Z,18.84
2022-09-05T00:41:03.312Z,18.91
2022-09-05T00:42:03.308Z,18.81
2022-09-05T00:43:03.342Z,18.81
2022-09-05T00:44:03.325Z,18.73
2022-09-05T00:45:03.316Z,18.82
2022-09-05T00:46:03.386Z,18.80
2022-09-05T00:47:03.320Z,18.72
2022-09-05T00:48:03.349Z,18.70
2022-09-05T00:49:03.335Z,18.66
2022-09-05T00:50:03.330Z,18.66
2022-09-05T00:51:03.346Z,18.73
2022-09-05T00:52:03.338Z,18.72
2022-09-05T00:53:06.485Z,18.70
2022-09-05T00:54:03.373Z,18.76
2022-09-05T00:55:03.362Z,18.67
2022-09-05T00:56:03.355Z,18.72
2022-09-05T00:57:03.362Z,18.72
2022-09-05T00:58:03.370Z,18.52
2022-09-05T00:59:03.380Z,18.57
2022-09-05T01:00:03.378Z,18.57
2022-09-05T01:01:03.379Z,18.57
2022-09-05T01:02:03.479Z,18.62
2022-09-05T01:03:03.487Z,18.57
2022-09-05T01:04:04.943Z,18.63
2022-09-05T01:05:03.416Z,18.58
2022-09-05T01:06:03.387Z,18.58
2022-09-05T01:07:03.391Z,18.58
2022-09-05T01:08:03.386Z,18.55
2022-09-05T01:09:08.040Z,18.57
2022-09-05T01:10:03.399Z,18.55
2022-09-05T01:11:03.408Z,18.55
2022-09-05T01:12:03.413Z,18.58
2022-09-05T01:13:03.407Z,18.63
2022-09-05T01:14:03.433Z,18.50
2022-09-05T01:15:03.423Z,18.48
2022-09-05T01:16:03.458Z,18.50
2022-09-05T01:17:03.432Z,18.42
2022-09-05T01:18:03.412Z,18.44
2022-09-05T01:19:03.427Z,18.52
2022-09-05T01:20:18.588Z,18.52
2022-09-05T01:21:03.423Z,18.37
2022-09-05T01:22:03.449Z,18.42
2022-09-05T01:23:08.362Z,18.32
2022-09-05T01:24:03.455Z,18.36
2022-09-05T01:25:03.437Z,18.41
2022-09-05T01:26:03.440Z,18.41
2022-09-05T01:27:03.436Z,18.39
2022-09-05T01:28:47.579Z,18.47
2022-09-05T01:29:16.104Z,18.41
2022-09-05T01:30:03.457Z,18.44
2022-09-05T01:31:03.470Z,18.44
2022-09-05T01:32:03.460Z,18.39
2022-09-05T01:33:06.023Z,18.35
2022-09-05T01:34:03.477Z,18.29
2022-09-05T01:35:03.472Z,18.33
2022-09-05T01:36:04.541Z,18.32
2022-09-05T01:37:03.466Z,18.27
2022-09-05T01:38:03.491Z,18.33
2022-09-05T01:40:12.499Z,18.30
2022-09-05T01:40:14.756Z,18.32
2022-09-05T01:41:18.710Z,18.27
2022-09-05T01:42:03.471Z,18.26
2022-09-05T01:43:03.475Z,18.32
2022-09-05T01:44:03.474Z,18.21
2022-09-05T01:45:03.521Z,18.25
2022-09-05T01:46:03.516Z,18.15
2022-09-05T01:47:03.511Z,18.21
2022-09-05T01:48:03.485Z,18.18
2022-09-05T01:49:03.515Z,18.25
2022-09-05T01:50:03.491Z,18.20
2022-09-05T01:51:03.513Z,18.21
2022-09-05T01:52:03.494Z,18.23
2022-09-05T01:53:05.461Z,18.18
2022-09-05T01:54:03.504Z,18.07
2022-09-05T01:55:11.316Z,18.10
2022-09-05T01:56:05.609Z,18.08
2022-09-05T01:57:03.511Z,18.05
2022-09-05T01:58:03.528Z,18.10
2022-09-05T01:59:03.520Z,18.08
2022-09-05T02:00:03.521Z,18.02
2022-09-05T02:01:25.332Z,17.95
2022-09-05T02:02:03.589Z,17.97
2022-09-05T02:03:03.581Z,18.00
2022-09-05T02:04:04.526Z,18.00
2022-09-05T02:05:03.527Z,18.00
2022-09-05T02:06:03.538Z,18.00
2022-09-05T02:07:19.967Z,17.97
2022-09-05T02:08:03.544Z,18.00
2022-09-05T02:09:03.535Z,17.97
2022-09-05T02:10:03.546Z,17.93
2022-09-05T02:11:03.543Z,17.96
2022-09-05T02:12:03.548Z,17.89
2022-09-05T02:13:03.639Z,17.97
2022-09-05T02:14:03.558Z,18.02
2022-09-05T02:15:03.548Z,17.97
2022-09-05T02:16:03.587Z,18.00
2022-09-05T02:17:03.565Z,18.02
2022-09-05T02:18:03.559Z,17.87
2022-09-05T02:19:03.574Z,17.97
2022-09-05T02:20:03.581Z,17.96
2022-09-05T02:21:03.564Z,17.99
2022-09-05T02:22:03.571Z,17.93
2022-09-05T02:23:03.579Z,17.95
2022-09-05T02:24:03.586Z,17.89
2022-09-05T02:26:01.963Z,17.96
2022-09-05T02:26:03.806Z,17.95
2022-09-05T02:27:03.576Z,17.96
2022-09-05T02:28:06.052Z,17.87
2022-09-05T02:29:03.601Z,17.93
2022-09-05T02:30:03.598Z,17.93
2022-09-05T02:31:19.069Z,17.87
2022-09-05T02:32:03.607Z,17.92
2022-09-05T02:33:03.605Z,17.89
2022-09-05T02:34:03.625Z,17.84
2022-09-05T02:35:03.631Z,17.89
2022-09-05T02:36:03.596Z,17.89
2022-09-05T02:37:03.605Z,17.87
2022-09-05T02:40:53.508Z,17.82
2022-09-05T02:43:51.862Z,17.82
2022-09-05T02:45:03.484Z,17.84
2022-09-05T02:45:06.686Z,17.84
2022-09-05T02:45:08.932Z,17.81
2022-09-05T02:45:16.343Z,17.82
2022-09-05T02:45:17.001Z,17.77
2022-09-05T02:45:24.407Z,17.78
2022-09-05T02:46:03.701Z,17.84
2022-09-05T02:47:03.658Z,17.77
2022-09-05T02:48:09.664Z,17.75
2022-09-05T02:49:07.753Z,17.78
2022-09-05T02:55:03.342Z,17.77
2022-09-05T02:57:23.785Z,17.75
2022-09-05T02:57:26.917Z,17.74
2022-09-05T02:57:34.202Z,17.71
2022-09-05T02:57:36.696Z,17.75
2022-09-05T02:57:38.341Z,17.77
2022-09-05T02:57:46.894Z,17.79
2022-09-05T02:58:05.967Z,17.74
2022-09-05T02:58:07.990Z,17.70
2022-09-05T02:59:10.078Z,17.70
2022-09-05T03:00:03.664Z,17.72
2022-09-05T03:01:03.728Z,17.70
2022-09-05T03:02:17.321Z,17.66
2022-09-05T03:03:03.774Z,17.64
2022-09-05T03:04:03.681Z,17.71
2022-09-05T03:05:05.031Z,17.72
2022-09-05T03:06:03.665Z,17.68
2022-09-05T03:07:03.667Z,17.71
2022-09-05T03:08:03.699Z,17.70
2022-09-05T03:09:14.867Z,17.64
2022-09-05T03:10:03.677Z,17.72
2022-09-05T03:11:03.687Z,17.63
2022-09-05T03:12:27.144Z,17.58
2022-09-05T03:13:03.701Z,17.59
2022-09-05T03:14:03.696Z,17.56
2022-09-05T03:15:03.695Z,17.55
2022-09-05T03:16:04.814Z,17.63
2022-09-05T03:17:03.718Z,17.52
2022-09-05T03:18:20.351Z,17.54
2022-09-05T03:19:03.718Z,17.55
2022-09-05T03:20:03.706Z,17.51
2022-09-05T03:21:09.620Z,17.56
2022-09-05T03:22:03.711Z,17.59
2022-09-05T03:23:03.705Z,17.54
2022-09-05T03:24:03.732Z,17.54
2022-09-05T03:25:03.720Z,17.52
2022-09-05T03:26:03.715Z,17.52
2022-09-05T03:27:03.720Z,17.52
2022-09-05T03:28:03.734Z,17.41
2022-09-05T03:29:03.724Z,17.49
2022-09-05T03:30:03.745Z,17.36
2022-09-05T03:31:03.775Z,17.40
2022-09-05T03:32:03.723Z,17.41
2022-09-05T03:33:03.745Z,17.37
2022-09-05T03:34:03.729Z,17.33
2022-09-05T03:35:08.257Z,17.34
2022-09-05T03:36:03.736Z,17.41
2022-09-05T03:37:03.747Z,17.36
2022-09-05T03:38:03.742Z,17.28
2022-09-05T03:39:03.757Z,17.33
2022-09-05T03:40:16.001Z,17.44
2022-09-05T03:41:03.767Z,17.43
2022-09-05T03:42:03.749Z,17.41
2022-09-05T03:43:03.748Z,17.43
2022-09-05T03:44:03.760Z,17.34
2022-09-05T03:45:03.765Z,17.34
2022-09-05T03:46:03.840Z,17.34
2022-09-05T03:47:03.779Z,17.36
2022-09-05T03:48:14.893Z,17.31
2022-09-05T03:49:10.499Z,17.38
2022-09-05T03:50:03.773Z,17.33
2022-09-05T03:57:05.495Z,17.31
2022-09-05T03:57:12.145Z,17.25
2022-09-05T03:57:17.487Z,17.33
2022-09-05T03:57:20.865Z,17.36
2022-09-05T03:57:25.335Z,17.38
2022-09-05T03:57:25.775Z,17.31
2022-09-05T03:57:27.998Z,17.28
2022-09-05T03:58:08.829Z,17.34
2022-09-05T03:59:04.213Z,17.31
2022-09-05T04:00:03.793Z,17.26
2022-09-05T04:01:18.924Z,17.28
2022-09-05T04:05:51.612Z,17.30
2022-09-05T04:08:07.276Z,17.28
2022-09-05T04:08:11.018Z,17.21
2022-09-05T04:08:19.114Z,17.30
2022-09-05T04:08:24.511Z,17.21
2022-09-05T04:08:25.939Z,17.30
2022-09-05T04:08:30.973Z,17.28
2022-09-05T04:09:03.986Z,17.25
2022-09-05T04:10:04.028Z,17.22
2022-09-05T04:11:03.902Z,17.23
2022-09-05T04:12:03.819Z,17.22
2022-09-05T04:13:03.807Z,17.23
2022-09-05T04:14:03.822Z,17.22
2022-09-05T04:15:03.860Z,17.26
2022-09-05T04:16:03.818Z,17.16
2022-09-05T04:17:03.893Z,17.26
2022-09-05T04:18:04.617Z,17.28
2022-09-05T04:19:03.836Z,17.30
2022-09-05T04:20:03.826Z,17.26
2022-09-05T04:21:03.843Z,17.21
2022-09-05T04:22:03.828Z,17.23
2022-09-05T04:23:03.845Z,17.23
2022-09-05T04:24:03.842Z,17.19
2022-09-05T04:25:03.862Z,17.21
2022-09-05T04:26:11.394Z,17.12
2022-09-05T04:27:03.848Z,17.25
2022-09-05T04:28:03.847Z,17.14
2022-09-05T04:29:03.857Z,17.19
2022-09-05T04:30:07.032Z,17.15
2022-09-05T04:31:03.871Z,17.14
2022-09-05T04:32:18.816Z,17.14
2022-09-05T04:33:03.849Z,17.22
2022-09-05T04:34:03.858Z,17.11
2022-09-05T04:35:03.852Z,17.08
2022-09-05T04:36:06.882Z,17.08
2022-09-05T04:37:03.864Z,17.07
2022-09-05T04:38:03.876Z,17.04
2022-09-05T04:39:03.871Z,17.06
2022-09-05T04:40:03.918Z,17.03
2022-09-05T04:41:03.876Z,17.01
2022-09-05T04:42:03.880Z,17.03
2022-09-05T04:43:03.881Z,17.07
2022-09-05T04:44:04.094Z,17.03
2022-09-05T04:45:03.869Z,17.07
2022-09-05T04:46:03.923Z,17.07
2022-09-05T04:47:03.880Z,17.08
2022-09-05T04:48:03.893Z,17.00
2022-09-05T04:49:03.887Z,17.00
2022-09-05T04:50:03.887Z,16.98
2022-09-05T04:51:03.889Z,17.01
2022-09-05T04:52:03.895Z,17.00
2022-09-05T04:53:03.888Z,17.06
2022-09-05T04:54:03.901Z,17.03
2022-09-05T04:55:03.899Z,17.03
2022-09-05T04:56:03.892Z,17.03
2022-09-05T04:57:11.756Z,17.04
2022-09-05T04:58:03.919Z,16.98
2022-09-05T05:01:08.298Z,17.00
2022-09-05T05:06:00.245Z,17.03
2022-09-05T05:06:03.932Z,17.03
2022-09-05T05:06:08.725Z,16.98
2022-09-05T05:06:09.581Z,17.04
2022-09-05T05:06:11.901Z,17.04
2022-09-05T05:06:16.112Z,17.03
2022-09-05T05:06:30.132Z,17.00
2022-09-05T05:07:07.884Z,17.03
2022-09-05T05:08:04.062Z,17.00
2022-09-05T05:09:03.946Z,17.04
2022-09-05T05:11:47.900Z,17.07
2022-09-05T05:14:49.856Z,17.07
2022-09-05T05:17:57.987Z,17.11
2022-09-05T05:17:58.022Z,17.11
2022-09-05T05:18:01.917Z,17.03
2022-09-05T05:18:08.627Z,17.15
2022-09-05T05:18:09.765Z,17.15
2022-09-05T05:18:10.379Z,17.19
2022-09-05T05:18:42.258Z,17.18
2022-09-05T05:19:17.011Z,17.16
2022-09-05T05:20:40.368Z,17.22
2022-09-05T05:21:04.021Z,17.18
2022-09-05T05:22:03.940Z,17.18
2022-09-05T05:23:07.892Z,17.22
2022-09-05T05:24:03.952Z,17.22
2022-09-05T05:25:03.952Z,17.23
2022-09-05T05:26:03.983Z,17.22
2022-09-05T05:27:03.961Z,17.26
2022-09-05T05:28:14.973Z,17.21
2022-09-05T05:29:03.969Z,17.30
2022-09-05T05:30:03.960Z,17.31
2022-09-05T05:31:03.981Z,17.38
2022-09-05T05:32:04.068Z,17.36
2022-09-05T05:33:03.966Z,17.34
2022-09-05T05:34:09.749Z,17.43
2022-09-05T05:35:04.000Z,17.46
2022-09-05T05:36:03.976Z,17.49
2022-09-05T05:37:03.975Z,17.59
2022-09-05T05:38:03.980Z,17.51
2022-09-05T05:39:03.980Z,17.52
2022-09-05T05:40:04.084Z,17.52
2022-09-05T05:41:03.992Z,17.54
2022-09-05T05:42:20.280Z,17.55
2022-09-05T05:43:03.991Z,17.58
2022-09-05T05:44:03.988Z,17.58
2022-09-05T05:45:03.986Z,17.55
2022-09-05T05:46:04.042Z,17.56
2022-09-05T05:47:03.997Z,17.58
2022-09-05T05:48:04.008Z,17.58
2022-09-05T05:49:03.995Z,17.59
2022-09-05T05:50:04.013Z,17.55
2022-09-05T05:51:03.989Z,17.56
2022-09-05T05:52:04.000Z,17.56
2022-09-05T05:53:04.002Z,17.58
2022-09-05T05:54:04.006Z,17.59
2022-09-05T05:55:36.239Z,17.56
2022-09-05T05:56:04.011Z,17.58
2022-09-05T05:57:14.833Z,17.55
2022-09-05T05:58:04.006Z,17.58
2022-09-05T05:59:04.018Z,17.66
2022-09-05T06:00:04.018Z,17.71
2022-09-05T06:01:04.018Z,17.64
2022-09-05T06:02:04.128Z,17.63
2022-09-05T06:03:24.891Z,17.74
2022-09-05T06:04:04.056Z,17.68
2022-09-05T06:05:04.411Z,17.77
2022-09-05T06:06:04.031Z,17.72
2022-09-05T06:07:04.039Z,17.70
2022-09-05T06:12:24.701Z,17.79
2022-09-05T06:12:31.735Z,17.86
2022-09-05T06:14:26.155Z,17.92
2022-09-05T06:14:52.607Z,18.03
2022-09-05T06:14:55.800Z,18.23
2022-09-05T06:14:56.699Z,18.05
2022-09-05T06:15:02.503Z,18.26
2022-09-05T06:15:10.473Z,18.33
2022-09-05T06:16:06.348Z,18.45
2022-09-05T06:17:04.341Z,18.41
2022-09-05T06:18:04.047Z,18.44
2022-09-05T06:19:04.060Z,18.48
2022-09-05T06:20:45.849Z,18.58
2022-09-05T06:22:08.491Z,18.66
2022-09-05T06:22:13.198Z,18.72
2022-09-05T06:23:04.077Z,18.73
2022-09-05T06:24:04.071Z,18.70
2022-09-05T06:25:07.690Z,18.72
2022-09-05T06:26:04.066Z,18.72
2022-09-05T06:27:04.071Z,18.80
2022-09-05T06:28:18.395Z,18.81
2022-09-05T06:29:04.093Z,18.91
2022-09-05T06:30:04.090Z,18.87
2022-09-05T06:31:19.790Z,19.07
2022-09-05T06:32:04.128Z,19.04
2022-09-05T06:33:04.159Z,19.07
2022-09-05T06:34:04.099Z,19.00
2022-09-05T06:35:04.105Z,19.13
2022-09-05T06:36:04.433Z,19.21
2022-09-05T06:37:04.228Z,19.19
2022-09-05T06:38:04.089Z,19.29
2022-09-05T06:39:04.118Z,19.43
2022-09-05T06:40:04.184Z,19.51
2022-09-05T06:41:04.106Z,19.69
2022-09-05T06:42:04.123Z,19.78
2022-09-05T06:43:04.111Z,19.95
2022-09-05T06:44:04.124Z,19.96
2022-09-05T06:45:15.915Z,19.92
2022-09-05T06:46:04.289Z,20.14
2022-09-05T06:47:22.729Z,20.16
2022-09-05T06:48:04.135Z,20.28
2022-09-05T06:49:33.488Z,20.47
2022-09-05T06:50:05.681Z,20.43
2022-09-05T06:51:07.806Z,20.54
2022-09-05T06:52:09.747Z,20.57
2022-09-05T06:53:07.110Z,20.59
2022-09-05T06:54:04.149Z,20.64
2022-09-05T06:55:04.150Z,20.61
2022-09-05T06:56:04.185Z,20.72
2022-09-05T06:57:04.150Z,20.55
2022-09-05T06:58:04.154Z,20.41
2022-09-05T06:59:08.998Z,20.47
2022-09-05T07:00:04.169Z,20.41
2022-09-05T07:01:04.263Z,20.42
2022-09-05T07:02:04.305Z,20.39
2022-09-05T07:03:04.242Z,20.33
2022-09-05T07:04:53.648Z,20.50
2022-09-05T07:05:38.009Z,20.51
2022-09-05T07:06:04.178Z,20.57
2022-09-05T07:07:06.243Z,20.55
2022-09-05T07:08:13.614Z,20.67
2022-09-05T07:09:04.193Z,20.85
2022-09-05T07:10:16.936Z,20.85
2022-09-05T07:11:11.495Z,20.89
2022-09-05T07:12:04.194Z,20.92
2022-09-05T07:13:04.211Z,21.01
2022-09-05T07:14:04.226Z,21.17
2022-09-05T07:15:08.658Z,21.31
2022-09-05T07:16:04.290Z,21.43
2022-09-05T07:17:04.242Z,21.52
2022-09-05T07:18:10.542Z,21.44
2022-09-05T07:19:04.238Z,21.53
2022-09-05T07:20:04.281Z,21.68
2022-09-05T07:21:16.841Z,21.64
2022-09-05T07:22:04.228Z,21.72
2022-09-05T07:23:47.819Z,21.68
2022-09-05T07:24:09.254Z,21.53
2022-09-05T07:25:04.248Z,21.61
2022-09-05T07:26:04.367Z,21.54
2022-09-05T07:27:04.251Z,21.64
2022-09-05T07:28:28.704Z,21.67
2022-09-05T07:29:04.251Z,21.77
2022-09-05T07:30:04.313Z,21.98
2022-09-05T07:31:04.338Z,22.24
2022-09-05T07:32:04.333Z,22.25
2022-09-05T07:33:04.280Z,22.39
2022-09-05T07:34:04.289Z,22.37
2022-09-05T07:35:04.474Z,22.52
2022-09-05T07:36:04.283Z,22.70
2022-09-05T07:37:14.932Z,22.88
2022-09-05T07:38:04.315Z,22.77
2022-09-05T07:39:27.618Z,22.67
2022-09-05T07:40:24.678Z,22.68
2022-09-05T07:41:04.316Z,22.75
2022-09-05T07:42:04.310Z,22.73
2022-09-05T07:43:09.068Z,22.70
2022-09-05T07:44:04.325Z,22.67
2022-09-05T07:45:04.319Z,22.55
2022-09-05T07:46:04.388Z,22.65
2022-09-05T07:47:04.343Z,22.57
2022-09-05T07:48:04.353Z,22.47
2022-09-05T07:49:04.342Z,22.54
2022-09-05T07:51:54.814Z,22.57
2022-09-05T07:56:17.169Z,22.60
2022-09-05T07:56:54.147Z,22.55
2022-09-05T07:56:58.898Z,22.76
2022-09-05T07:56:59.386Z,22.73
2022-09-05T07:57:05.170Z,22.77
2022-09-05T07:57:08.068Z,22.65
2022-09-05T07:58:05.985Z,22.94
2022-09-05T07:59:04.380Z,22.83
2022-09-05T08:00:04.385Z,22.82
2022-09-05T08:01:04.465Z,22.88
2022-09-05T08:02:04.392Z,22.86
2022-09-05T08:03:04.418Z,22.73
2022-09-05T08:04:05.896Z,22.88
2022-09-05T08:05:04.533Z,22.91
2022-09-05T08:06:04.409Z,22.92
2022-09-05T08:07:49.013Z,22.91
2022-09-05T08:08:04.426Z,22.90
2022-09-05T08:09:21.295Z,22.75
2022-09-05T08:10:08.008Z,22.65
2022-09-05T08:11:25.432Z,22.57
2022-09-05T08:12:09.962Z,22.51
2022-09-05T08:13:24.400Z,22.57
2022-09-05T08:14:44.794Z,22.51
2022-09-05T08:15:04.445Z,22.54
2022-09-05T08:16:10.635Z,22.61
2022-09-05T08:17:04.538Z,22.55
2022-09-05T08:18:04.484Z,22.47
2022-09-05T08:19:04.471Z,22.49
2022-09-05T08:20:08.844Z,22.49
2022-09-05T08:21:04.479Z,22.49
2022-09-05T08:22:04.503Z,22.55
2022-09-05T08:23:04.508Z,22.61
2022-09-05T08:24:05.597Z,22.61
2022-09-05T08:25:04.503Z,22.76
2022-09-05T08:26:04.501Z,22.80
2022-09-05T08:27:04.508Z,22.62
2022-09-05T08:28:04.519Z,22.57
2022-09-05T08:29:04.520Z,22.55
2022-09-05T08:30:26.183Z,22.64
2022-09-05T08:31:04.611Z,22.64
2022-09-05T08:32:04.538Z,22.62
2022-09-05T08:33:11.236Z,22.72
2022-09-05T08:34:04.553Z,22.75
2022-09-05T08:35:04.561Z,22.79
2022-09-05T08:36:04.565Z,22.73
2022-09-05T08:37:04.563Z,22.67
2022-09-05T08:38:04.578Z,22.75
2022-09-05T08:39:04.564Z,22.76
2022-09-05T08:40:11.299Z,22.75
2022-09-05T08:41:04.595Z,22.70
2022-09-05T08:42:05.992Z,22.77
2022-09-05T08:46:25.480Z,22.75
2022-09-05T08:46:40.815Z,22.73
2022-09-05T08:46:42.800Z,22.67
2022-09-05T08:46:47.586Z,22.61
2022-09-05T08:47:04.691Z,22.73
2022-09-05T08:48:13.017Z,22.73
2022-09-05T08:49:15.517Z,22.88
2022-09-05T08:50:04.621Z,22.85
2022-09-05T08:51:13.064Z,22.91
2022-09-05T08:52:13.558Z,22.92
2022-09-05T08:53:26.830Z,22.92
2022-09-05T08:54:13.110Z,22.91
2022-09-05T08:55:13.128Z,23.05
2022-09-05T08:56:04.629Z,23.07
2022-09-05T08:57:04.657Z,23.12
2022-09-05T08:58:13.205Z,23.17
2022-09-05T08:59:32.279Z,23.23
2022-09-05T09:00:20.320Z,23.27
2022-09-05T09:01:12.746Z,23.28
2022-09-05T09:02:48.054Z,23.28
2022-09-05T09:03:12.831Z,23.20
2022-09-05T09:04:04.709Z,23.28
2022-09-05T09:05:04.697Z,23.40
2022-09-05T09:06:14.180Z,23.39
2022-09-05T09:07:47.021Z,23.36
2022-09-05T09:08:04.690Z,23.36
2022-09-05T09:09:05.730Z,23.39
2022-09-05T09:10:04.725Z,23.48
2022-09-05T09:11:05.032Z,23.43
2022-09-05T09:12:04.714Z,23.42
2022-09-05T09:13:04.699Z,23.42
2022-09-05T09:14:04.724Z,23.48
2022-09-05T09:15:04.706Z,23.48
2022-09-05T09:16:04.813Z,23.53
2022-09-05T09:17:04.716Z,23.55
2022-09-05T09:18:06.412Z,23.54
2022-09-05T09:19:04.770Z,23.61
2022-09-05T09:20:04.730Z,23.58
2022-09-05T09:21:04.754Z,23.58
2022-09-05T09:22:04.773Z,23.61
2022-09-05T09:23:04.744Z,23.63
2022-09-05T09:24:04.753Z,23.66
2022-09-05T09:25:15.082Z,23.66
2022-09-05T09:26:04.780Z,23.72
2022-09-05T09:27:04.788Z,23.83
2022-09-05T09:28:49.796Z,23.84
2022-09-05T09:29:04.796Z,23.85
2022-09-05T09:30:04.794Z,23.88
2022-09-05T09:31:04.811Z,24.02
2022-09-05T09:32:04.817Z,24.06
2022-09-05T09:33:04.802Z,24.09
2022-09-05T09:34:04.810Z,24.15
2022-09-05T09:35:06.191Z,24.28
2022-09-05T09:36:07.983Z,24.27
2022-09-05T09:37:04.810Z,24.31
2022-09-05T09:38:04.814Z,24.35
2022-09-05T09:39:11.911Z,24.35
2022-09-05T09:40:04.875Z,24.46
2022-09-05T09:41:04.848Z,24.53
2022-09-05T09:42:04.864Z,24.60
2022-09-05T09:43:07.106Z,24.65
2022-09-05T09:44:04.855Z,24.71
2022-09-05T09:45:22.800Z,24.84
2022-09-05T09:46:04.968Z,24.90
2022-09-05T09:47:04.876Z,25.06
2022-09-05T09:48:04.886Z,25.03
2022-09-05T09:49:04.881Z,25.13
2022-09-05T09:50:04.943Z,25.14
2022-09-05T09:51:04.913Z,25.20
2022-09-05T09:52:04.906Z,25.40
2022-09-05T09:53:04.905Z,25.45
2022-09-05T09:54:04.909Z,25.57
2022-09-05T09:55:04.926Z,25.60
2022-09-05T09:56:06.990Z,25.67
2022-09-05T09:57:04.946Z,25.76
2022-09-05T09:58:04.951Z,25.85
2022-09-05T09:59:04.963Z,25.88
2022-09-05T10:00:04.977Z,25.98
2022-09-05T10:01:35.175Z,25.97
2022-09-05T10:02:32.790Z,26.01
2022-09-05T10:07:54.537Z,26.15
2022-09-05T10:10:35.058Z,26.23
2022-09-05T10:10:36.375Z,26.10
2022-09-05T10:10:39.095Z,26.35
2022-09-05T10:10:44.109Z,26.72
2022-09-05T10:10:47.956Z,26.44
2022-09-05T10:10:57.756Z,26.50
2022-09-05T10:11:09.344Z,26.81
2022-09-05T10:11:34.048Z,26.94
2022-09-05T10:12:05.467Z,27.24
2022-09-05T10:13:08.289Z,27.34
2022-09-05T10:14:05.112Z,27.60
2022-09-05T10:15:19.102Z,27.67
2022-09-05T10:16:06.171Z,27.82
2022-09-05T10:17:05.132Z,27.97
2022-09-05T10:18:05.149Z,28.18
2022-09-05T10:19:05.146Z,28.34
2022-09-05T10:20:09.040Z,28.49
2022-09-05T10:21:16.631Z,28.37
2022-09-05T10:23:05.170Z,28.71
2022-09-05T10:24:05.201Z,29.11
2022-09-05T10:25:18.855Z,29.26
2022-09-05T10:26:05.219Z,29.51
2022-09-05T10:27:05.234Z,29.52
2022-09-05T10:28:05.235Z,29.64
2022-09-05T10:29:33.260Z,29.70
2022-09-05T10:30:05.268Z,29.79
2022-09-05T10:32:23.214Z,29.68
2022-09-05T10:35:10.554Z,29.68
2022-09-05T10:35:13.523Z,29.64
2022-09-05T10:35:21.121Z,29.80
2022-09-05T10:35:22.836Z,29.87
2022-09-05T10:36:05.397Z,30.00
2022-09-05T10:37:05.448Z,30.05
2022-09-05T10:38:10.280Z,30.20
2022-09-05T10:39:05.381Z,30.22
2022-09-05T10:40:05.438Z,30.23
2022-09-05T10:41:21.884Z,30.32
2022-09-05T10:42:05.437Z,30.35
2022-09-05T10:43:05.448Z,30.49
2022-09-05T10:44:05.463Z,30.65
2022-09-05T10:45:05.470Z,30.80
2022-09-05T10:46:05.529Z,30.91
2022-09-05T10:47:05.547Z,31.02
2022-09-05T10:48:13.284Z,31.14
2022-09-05T10:49:05.531Z,31.12
2022-09-05T10:50:05.576Z,31.07
2022-09-05T10:51:05.540Z,31.12
2022-09-05T10:52:19.025Z,31.29
2022-09-05T10:53:05.568Z,31.17
2022-09-05T10:54:05.610Z,31.06
2022-09-05T10:55:13.797Z,30.77
2022-09-05T10:56:05.628Z,30.77
2022-09-05T10:57:05.632Z,30.65
2022-09-05T10:58:05.659Z,30.75
2022-09-05T11:02:19.131Z,31.06
2022-09-05T11:02:22.751Z,31.16
2022-09-05T11:02:24.768Z,30.95
2022-09-05T11:02:30.353Z,31.35
2022-09-05T11:03:05.783Z,31.36
2022-09-05T11:04:05.879Z,31.43
2022-09-05T11:05:05.815Z,31.58
2022-09-05T11:06:09.514Z,31.69
2022-09-05T11:07:05.793Z,31.93
2022-09-05T11:08:05.809Z,32.15
2022-09-05T11:09:05.831Z,32.44
2022-09-05T11:10:05.852Z,32.45
2022-09-05T11:11:05.858Z,32.45
2022-09-05T11:12:05.878Z,32.38
2022-09-05T11:13:05.892Z,32.45
2022-09-05T11:14:05.924Z,32.48
2022-09-05T11:15:05.927Z,32.63
2022-09-05T11:16:08.274Z,32.60
2022-09-05T11:17:05.972Z,32.35
2022-09-05T11:18:05.973Z,32.13
2022-09-05T11:19:05.994Z,31.88
2022-09-05T11:20:06.018Z,31.81
2022-09-05T11:21:06.042Z,31.66
2022-09-05T11:22:22.200Z,31.43
2022-09-05T11:23:06.057Z,31.53
2022-09-05T11:24:06.064Z,31.25
2022-09-05T11:25:06.093Z,31.04
2022-09-05T11:26:06.118Z,30.80
2022-09-05T11:27:24.545Z,30.61
2022-09-05T11:28:06.120Z,30.72
2022-09-05T11:29:06.155Z,30.86
2022-09-05T11:30:06.236Z,31.09
2022-09-05T11:31:06.249Z,31.38
2022-09-05T11:34:32.800Z,31.63
2022-09-05T11:39:26.309Z,31.84
2022-09-05T11:39:50.204Z,32.18
2022-09-05T11:39:53.633Z,32.38
2022-09-05T11:39:56.263Z,32.89
2022-09-05T11:39:59.337Z,32.78
2022-09-05T11:39:59.730Z,32.62
2022-09-05T11:40:09.002Z,32.82
2022-09-05T11:40:29.182Z,32.94
2022-09-05T11:41:11.893Z,32.96
2022-09-05T11:42:06.366Z,33.18
2022-09-05T11:43:06.328Z,33.03
2022-09-05T11:44:26.328Z,32.92
2022-09-05T11:45:06.353Z,32.72
2022-09-05T11:46:06.404Z,32.67
2022-09-05T11:47:28.097Z,32.77
2022-09-05T11:48:06.408Z,32.66
2022-09-05T11:49:06.867Z,32.77
2022-09-05T11:50:09.126Z,32.87
2022-09-05T11:51:06.414Z,32.92
2022-09-05T11:52:06.450Z,33.07
2022-09-05T11:53:06.467Z,33.11
2022-09-05T11:54:06.454Z,33.23
2022-09-05T11:55:06.466Z,33.15
2022-09-05T11:56:06.486Z,32.92
2022-09-05T11:57:32.093Z,32.94
2022-09-05T11:58:43.947Z,32.70
2022-09-05T11:59:06.509Z,32.22
2022-09-05T12:00:30.740Z,32.08
2022-09-05T12:01:41.336Z,31.96
2022-09-05T12:02:17.032Z,31.54
2022-09-05T12:03:06.539Z,31.26
2022-09-05T12:04:09.985Z,31.04
2022-09-05T12:05:49.441Z,30.91
2022-09-05T12:06:06.648Z,30.54
2022-09-05T12:07:15.459Z,30.43
2022-09-05T12:08:08.172Z,30.23
2022-09-05T12:09:06.613Z,30.15
2022-09-05T12:10:06.618Z,29.97
2022-09-05T12:11:06.653Z,29.67
2022-09-05T12:12:18.663Z,29.53
2022-09-05T12:13:07.115Z,29.27
2022-09-05T12:14:13.697Z,29.14
2022-09-05T12:15:07.226Z,28.95
2022-09-05T12:16:08.268Z,28.81
2022-09-05T12:17:10.332Z,28.71
2022-09-05T12:18:12.643Z,28.67
2022-09-05T12:19:19.349Z,28.70
2022-09-05T12:20:06.708Z,28.74
2022-09-05T12:21:10.261Z,28.74
2022-09-05T12:22:08.836Z,28.77
2022-09-05T12:23:06.751Z,28.70
2022-09-05T12:24:54.966Z,28.68
2022-09-05T12:25:25.431Z,28.54
2022-09-05T12:28:39.124Z,27.88
2022-09-05T12:29:32.961Z,27.94
2022-09-05T12:30:06.853Z,27.93
2022-09-05T12:31:53.919Z,27.94
2022-09-05T12:34:11.962Z,27.94
2022-09-05T12:36:01.414Z,27.94
2022-09-05T12:36:02.599Z,27.96
2022-09-05T12:36:09.836Z,27.97
2022-09-05T12:40:42.942Z,27.96
2022-09-05T12:40:57.889Z,27.54
2022-09-05T12:41:39.082Z,27.36
2022-09-05T12:41:41.714Z,28.09
2022-09-05T12:41:41.715Z,28.34
2022-09-05T12:41:42.339Z,27.90
2022-09-05T12:41:42.464Z,27.79
2022-09-05T12:41:42.900Z,27.24
2022-09-05T12:42:13.806Z,27.09
2022-09-05T12:44:39.477Z,27.00
2022-09-05T12:44:41.912Z,26.84
2022-09-05T12:45:07.145Z,26.81
2022-09-05T12:46:10.958Z,26.80
2022-09-05T12:47:17.009Z,26.77
2022-09-05T12:48:06.948Z,26.80
2022-09-05T12:49:07.607Z,26.88
2022-09-05T12:50:14.986Z,27.04
2022-09-05T12:51:06.983Z,27.07
2022-09-05T12:52:06.979Z,27.13
2022-09-05T12:53:06.984Z,27.06
2022-09-05T12:54:09.453Z,27.07
2022-09-05T12:55:07.024Z,27.07